sensor_id;sensor_type;location;lat;lon;timestamp;P1;durP1;ratioP1;P2;durP2;ratioP2
4325;SDS011;58429;49.826;10.880;2022-07-18T00:00:21;7.9;;;1.6;;
4325;SDS011;58429;49.826;10.880;2022-07-18T00:01:21;7.9;;;1.6;;
4325;SDS011;58429;49.826;10.880;2022-07-18T00:02:21;8.2;;;1.6;;
4325;SDS011;58429;49.826;10.880;2022-07-18T00:03:21;8.2;;;1.6;;
4325;SDS011;58429;49.826;10.880;2022-07-18T00:04:21;8.2;;;1.6;;
4325;SDS011;58429;49.826;10.880;2022-07-18T00:05:21;7.6;;;1.7;;
4325;SDS011;58429;49.826;10.880;2022-07-18T00:06:21;7.6;;;1.7;;
4325;SDS011;58429;49.826;10.880;2022-07-18T00:07:21;7.6;;;1.7;;
4325;SDS011;58429;49.826;10.880;2022-07-18T00:08:21;6.5;;;1.6;;
4325;SDS011;58429;49.826;10.880;2022-07-18T00:09:21;6.5;;;1.6;;
4325;SDS011;58429;49.826;10.880;2022-07-18T00:10:21;6.5;;;1.6;;
4325;SDS011;58429;49.826;10.880;2022-07-18T00:11:21;6.6;;;1.5;;
4325;SDS011;58429;49.826;10.880;2022-07-18T00:12:21;6.6;;;1.5;;
4325;SDS011;58429;49.826;10.880;2022-07-18T00:13:21;6.6;;;1.5;;
4325;SDS011;58429;49.826;10.880;2022-07-18T00:14:21;7.7;;;1.5;;
4325;SDS011;58429;49.826;10.880;2022-07-18T00:15:21;7.7;;;1.5;;
4325;SDS011;58429;49.826;10.880;2022-07-18T00:16:21;7.7;;;1.5;;
4325;SDS011;58429;49.826;10.880;2022-07-18T00:17:21;6.4;;;1.4;;
4325;SDS011;58429;49.826;10.880;2022-07-18T00:18:21;6.4;;;1.4;;
4325;SDS011;58429;49.826;10.880;2022-07-18T00:19:21;6.4;;;1.4;;
4325;SDS011;58429;49.826;10.880;2022-07-18T00:20:21;6.7;;;1.4;;
4325;SDS011;58429;49.826;10.880;2022-07-18T00:21:21;6.7;;;1.4;;
4325;SDS011;58429;49.826;10.880;2022-07-18T00:22:21;6.7;;;1.4;;
4325;SDS011;58429;49.826;10.880;2022-07-18T00:23:21;4.9;;;1.3;;
4325;SDS011;58429;49.826;10.880;2022-07-18T00:24:21;4.9;;;1.3;;
4325;SDS011;58429;49.826;10.880;2022-07-18T00:25:21;4.9;;;1.3;;
4325;SDS011;58429;49.826;10.880;2022-07-18T00:26:21;6.8;;;1.3;;
4325;SDS011;58429;49.826;10.880;2022-07-18T00:27:21;6.8;;;1.3;;
4325;SDS011;58429;49.826;10.880;2022-07-18T00:28:21;6.8;;;1.3;;
4325;SDS011;58429;49.826;10.880;2022-07-18T00:29:21;6.9;;;1.4;;
4325;SDS011;58429;49.826;10.880;2022-07-18T00:30:21;6.9;;;1.4;;
4325;SDS011;58429;49.826;10.880;2022-07-18T00:31:21;6.9;;;1.4;;
4325;SDS011;58429;49.826;10.880;2022-07-18T00:32:21;6;;;1.3;;
4325;SDS011;58429;49.826;10.880;2022-07-18T00:33:21;6;;;1.3;;
4325;SDS011;58429;49.826;10.880;2022-07-18T00:34:21;6;;;1.3;;
4325;SDS011;58429;49.826;10.880;2022-07-18T00:35:21;5;;;1.4;;
4325;SDS011;58429;49.826;10.880;2022-07-18T00:36:21;5;;;1.4;;
4325;SDS011;58429;49.826;10.880;2022-07-18T00:37:21;5;;;1.4;;
4325;SDS011;58429;49.826;10.880;2022-07-18T00:38:21;7;;;1.5;;
4325;SDS011;58429;49.826;10.880;2022-07-18T00:39:21;7;;;1.5;;
4325;SDS011;58429;49.826;10.880;2022-07-18T00:40:21;7;;;1.5;;
4325;SDS011;58429;49.826;10.880;2022-07-18T00:41:21;5.8;;;1.3;;
4325;SDS011;58429;49.826;10.880;2022-07-18T00:42:21;5.8;;;1.3;;
4325;SDS011;58429;49.826;10.880;2022-07-18T00:43:21;5.8;;;1.3;;
4325;SDS011;58429;49.826;10.880;2022-07-18T00:44:21;6.8;;;1.5;;
4325;SDS011;58429;49.826;10.880;2022-07-18T00:45:21;6.8;;;1.5;;
4325;SDS011;58429;49.826;10.880;2022-07-18T00:46:21;6.8;;;1.5;;
4325;SDS011;58429;49.826;10.880;2022-07-18T00:47:21;5.7;;;1.3;;
4325;SDS011;58429;49.826;10.880;2022-07-18T00:48:21;5.7;;;1.3;;
4325;SDS011;58429;49.826;10.880;2022-07-18T00:49:21;5.7;;;1.3;;
4325;SDS011;58429;49.826;10.880;2022-07-18T00:50:21;6.1;;;1.6;;
4325;SDS011;58429;49.826;10.880;2022-07-18T00:51:21;6.1;;;1.6;;
4325;SDS011;58429;49.826;10.880;2022-07-18T00:52:21;6.1;;;1.6;;
4325;SDS011;58429;49.826;10.880;2022-07-18T00:53:21;7.3;;;1.6;;
4325;SDS011;58429;49.826;10.880;2022-07-18T00:54:21;7.3;;;1.6;;
4325;SDS011;58429;49.826;10.880;2022-07-18T00:55:21;7.3;;;1.6;;
4325;SDS011;58429;49.826;10.880;2022-07-18T00:56:21;5.9;;;1.7;;
4325;SDS011;58429;49.826;10.880;2022-07-18T00:57:21;5.9;;;1.7;;
4325;SDS011;58429;49.826;10.880;2022-07-18T00:58:21;5.9;;;1.7;;
4325;SDS011;58429;49.826;10.880;2022-07-18T00:59:21;6.4;;;2;;
4325;SDS011;58429;49.826;10.880;2022-07-18T01:00:21;6.4;;;2;;
4325;SDS011;58429;49.826;10.880;2022-07-18T01:01:21;6.4;;;2;;
4325;SDS011;58429;49.826;10.880;2022-07-18T01:02:21;5.3;;;1.3;;
4325;SDS011;58429;49.826;10.880;2022-07-18T01:03:21;5.3;;;1.3;;
4325;SDS011;58429;49.826;10.880;2022-07-18T01:04:22;5.3;;;1.3;;
4325;SDS011;58429;49.826;10.880;2022-07-18T01:05:21;5.3;;;1.3;;
4325;SDS011;58429;49.826;10.880;2022-07-18T01:06:21;6.3;;;1.6;;
4325;SDS011;58429;49.826;10.880;2022-07-18T01:07:21;6.3;;;1.6;;
4325;SDS011;58429;49.826;10.880;2022-07-18T01:08:21;6.3;;;1.6;;
4325;SDS011;58429;49.826;10.880;2022-07-18T01:09:21;6;;;1.4;;
4325;SDS011;58429;49.826;10.880;2022-07-18T01:10:21;6;;;1.4;;
4325;SDS011;58429;49.826;10.880;2022-07-18T01:11:21;6;;;1.4;;
4325;SDS011;58429;49.826;10.880;2022-07-18T01:12:21;6.1;;;1.5;;
4325;SDS011;58429;49.826;10.880;2022-07-18T01:13:21;6.1;;;1.5;;
4325;SDS011;58429;49.826;10.880;2022-07-18T01:14:21;6.1;;;1.5;;
4325;SDS011;58429;49.826;10.880;2022-07-18T01:15:21;6.5;;;1.5;;
4325;SDS011;58429;49.826;10.880;2022-07-18T01:16:21;6.5;;;1.5;;
4325;SDS011;58429;49.826;10.880;2022-07-18T01:17:21;6.5;;;1.5;;
4325;SDS011;58429;49.826;10.880;2022-07-18T01:18:21;6.1;;;1.7;;
4325;SDS011;58429;49.826;10.880;2022-07-18T01:19:21;6.1;;;1.7;;
4325;SDS011;58429;49.826;10.880;2022-07-18T01:20:21;6.1;;;1.7;;
4325;SDS011;58429;49.826;10.880;2022-07-18T01:21:21;5.8;;;1.5;;
4325;SDS011;58429;49.826;10.880;2022-07-18T01:22:21;5.8;;;1.5;;
4325;SDS011;58429;49.826;10.880;2022-07-18T01:23:21;5.8;;;1.5;;
4325;SDS011;58429;49.826;10.880;2022-07-18T01:24:21;7;;;1.5;;
4325;SDS011;58429;49.826;10.880;2022-07-18T01:25:21;7;;;1.5;;
4325;SDS011;58429;49.826;10.880;2022-07-18T01:26:21;7;;;1.5;;
4325;SDS011;58429;49.826;10.880;2022-07-18T01:27:21;6.3;;;1.6;;
4325;SDS011;58429;49.826;10.880;2022-07-18T01:28:21;6.3;;;1.6;;
4325;SDS011;58429;49.826;10.880;2022-07-18T01:29:21;6.3;;;1.6;;
4325;SDS011;58429;49.826;10.880;2022-07-18T01:30:21;6.9;;;1.7;;
4325;SDS011;58429;49.826;10.880;2022-07-18T01:31:21;6.9;;;1.7;;
4325;SDS011;58429;49.826;10.880;2022-07-18T01:32:21;6.9;;;1.7;;
4325;SDS011;58429;49.826;10.880;2022-07-18T01:33:21;6;;;1.7;;
4325;SDS011;58429;49.826;10.880;2022-07-18T01:34:21;6;;;1.7;;
4325;SDS011;58429;49.826;10.880;2022-07-18T01:35:21;6;;;1.7;;
4325;SDS011;58429;49.826;10.880;2022-07-18T01:36:21;6.5;;;1.6;;
4325;SDS011;58429;49.826;10.880;2022-07-18T01:37:21;6.5;;;1.6;;
4325;SDS011;58429;49.826;10.880;2022-07-18T01:38:21;6.5;;;1.6;;
4325;SDS011;58429;49.826;10.880;2022-07-18T01:39:21;5.2;;;1.4;;
4325;SDS011;58429;49.826;10.880;2022-07-18T01:40:21;5.2;;;1.4;;
4325;SDS011;58429;49.826;10.880;2022-07-18T01:41:21;5.2;;;1.4;;
4325;SDS011;58429;49.826;10.880;2022-07-18T01:42:21;5.4;;;1.4;;
4325;SDS011;58429;49.826;10.880;2022-07-18T01:43:21;5.4;;;1.4;;
4325;SDS011;58429;49.826;10.880;2022-07-18T01:44:21;5.4;;;1.4;;
4325;SDS011;58429;49.826;10.880;2022-07-18T01:45:21;6.2;;;1.5;;
4325;SDS011;58429;49.826;10.880;2022-07-18T01:46:21;6.2;;;1.5;;
4325;SDS011;58429;49.826;10.880;2022-07-18T01:47:21;6.2;;;1.5;;
4325;SDS011;58429;49.826;10.880;2022-07-18T01:48:21;6.9;;;1.6;;
4325;SDS011;58429;49.826;10.880;2022-07-18T01:49:21;6.9;;;1.6;;
4325;SDS011;58429;49.826;10.880;2022-07-18T01:50:21;6.9;;;1.6;;
4325;SDS011;58429;49.826;10.880;2022-07-18T01:51:21;7;;;1.4;;
4325;SDS011;58429;49.826;10.880;2022-07-18T01:52:21;7;;;1.4;;
4325;SDS011;58429;49.826;10.880;2022-07-18T01:53:21;7;;;1.4;;
4325;SDS011;58429;49.826;10.880;2022-07-18T01:54:21;5.4;;;1.4;;
4325;SDS011;58429;49.826;10.880;2022-07-18T01:55:21;5.4;;;1.4;;
4325;SDS011;58429;49.826;10.880;2022-07-18T01:56:21;5.4;;;1.4;;
4325;SDS011;58429;49.826;10.880;2022-07-18T01:57:21;6.7;;;1.3;;
4325;SDS011;58429;49.826;10.880;2022-07-18T01:58:21;6.7;;;1.3;;
4325;SDS011;58429;49.826;10.880;2022-07-18T01:59:21;6.7;;;1.3;;
4325;SDS011;58429;49.826;10.880;2022-07-18T02:00:21;6;;;1.6;;
4325;SDS011;58429;49.826;10.880;2022-07-18T02:01:21;6;;;1.6;;
4325;SDS011;58429;49.826;10.880;2022-07-18T02:02:21;6;;;1.6;;
4325;SDS011;58429;49.826;10.880;2022-07-18T02:03:21;5.1;;;1.4;;
4325;SDS011;58429;49.826;10.880;2022-07-18T02:04:21;5.1;;;1.4;;
4325;SDS011;58429;49.826;10.880;2022-07-18T02:05:21;5.1;;;1.4;;
4325;SDS011;58429;49.826;10.880;2022-07-18T02:06:21;6.2;;;1.4;;
4325;SDS011;58429;49.826;10.880;2022-07-18T02:07:21;6.2;;;1.4;;
4325;SDS011;58429;49.826;10.880;2022-07-18T02:08:21;6.2;;;1.4;;
4325;SDS011;58429;49.826;10.880;2022-07-18T02:09:21;6.1;;;1.6;;
4325;SDS011;58429;49.826;10.880;2022-07-18T02:10:21;6.1;;;1.6;;
4325;SDS011;58429;49.826;10.880;2022-07-18T02:11:21;6.1;;;1.6;;
4325;SDS011;58429;49.826;10.880;2022-07-18T02:12:21;6.4;;;1.5;;
4325;SDS011;58429;49.826;10.880;2022-07-18T02:13:21;6.4;;;1.5;;
4325;SDS011;58429;49.826;10.880;2022-07-18T02:14:21;6.4;;;1.5;;
4325;SDS011;58429;49.826;10.880;2022-07-18T02:15:21;7.1;;;1.6;;
4325;SDS011;58429;49.826;10.880;2022-07-18T02:16:21;7.1;;;1.6;;
4325;SDS011;58429;49.826;10.880;2022-07-18T02:17:21;7.1;;;1.6;;
4325;SDS011;58429;49.826;10.880;2022-07-18T02:18:21;6.2;;;1.5;;
4325;SDS011;58429;49.826;10.880;2022-07-18T02:19:21;6.2;;;1.5;;
4325;SDS011;58429;49.826;10.880;2022-07-18T02:20:21;6.2;;;1.5;;
4325;SDS011;58429;49.826;10.880;2022-07-18T02:21:21;4.9;;;1.4;;
4325;SDS011;58429;49.826;10.880;2022-07-18T02:22:21;4.9;;;1.4;;
4325;SDS011;58429;49.826;10.880;2022-07-18T02:23:21;4.9;;;1.4;;
4325;SDS011;58429;49.826;10.880;2022-07-18T02:24:21;5.4;;;1.6;;
4325;SDS011;58429;49.826;10.880;2022-07-18T02:25:21;5.4;;;1.6;;
4325;SDS011;58429;49.826;10.880;2022-07-18T02:26:21;5.4;;;1.6;;
4325;SDS011;58429;49.826;10.880;2022-07-18T02:27:21;9;;;1.8;;
4325;SDS011;58429;49.826;10.880;2022-07-18T02:28:21;9;;;1.8;;
4325;SDS011;58429;49.826;10.880;2022-07-18T02:29:21;9;;;1.8;;
4325;SDS011;58429;49.826;10.880;2022-07-18T02:30:21;6.3;;;1.7;;
4325;SDS011;58429;49.826;10.880;2022-07-18T02:31:21;6.3;;;1.7;;
4325;SDS011;58429;49.826;10.880;2022-07-18T02:32:21;6.3;;;1.7;;
4325;SDS011;58429;49.826;10.880;2022-07-18T02:33:21;5.5;;;1.6;;
4325;SDS011;58429;49.826;10.880;2022-07-18T02:34:21;5.5;;;1.6;;
4325;SDS011;58429;49.826;10.880;2022-07-18T02:35:21;5.5;;;1.6;;
4325;SDS011;58429;49.826;10.880;2022-07-18T02:36:21;6.9;;;1.7;;
4325;SDS011;58429;49.826;10.880;2022-07-18T02:37:21;6.9;;;1.7;;
4325;SDS011;58429;49.826;10.880;2022-07-18T02:38:21;6.9;;;1.7;;
4325;SDS011;58429;49.826;10.880;2022-07-18T02:39:21;7.9;;;1.8;;
4325;SDS011;58429;49.826;10.880;2022-07-18T02:40:21;7.9;;;1.8;;
4325;SDS011;58429;49.826;10.880;2022-07-18T02:41:21;7.9;;;1.8;;
4325;SDS011;58429;49.826;10.880;2022-07-18T02:42:21;7.2;;;1.4;;
4325;SDS011;58429;49.826;10.880;2022-07-18T02:43:21;7.2;;;1.4;;
4325;SDS011;58429;49.826;10.880;2022-07-18T02:44:21;7.2;;;1.4;;
4325;SDS011;58429;49.826;10.880;2022-07-18T02:45:21;5.5;;;1.4;;
4325;SDS011;58429;49.826;10.880;2022-07-18T02:46:21;5.5;;;1.4;;
4325;SDS011;58429;49.826;10.880;2022-07-18T02:47:21;5.5;;;1.4;;
4325;SDS011;58429;49.826;10.880;2022-07-18T02:48:21;6.4;;;1.5;;
4325;SDS011;58429;49.826;10.880;2022-07-18T02:49:21;6.4;;;1.5;;
4325;SDS011;58429;49.826;10.880;2022-07-18T02:50:21;6.4;;;1.5;;
4325;SDS011;58429;49.826;10.880;2022-07-18T02:51:21;5.7;;;1.4;;
4325;SDS011;58429;49.826;10.880;2022-07-18T02:52:21;5.7;;;1.4;;
4325;SDS011;58429;49.826;10.880;2022-07-18T02:53:21;5.7;;;1.4;;
4325;SDS011;58429;49.826;10.880;2022-07-18T02:54:21;7.3;;;1.6;;
4325;SDS011;58429;49.826;10.880;2022-07-18T02:55:21;7.3;;;1.6;;
4325;SDS011;58429;49.826;10.880;2022-07-18T02:56:21;7.3;;;1.6;;
4325;SDS011;58429;49.826;10.880;2022-07-18T02:57:21;6.1;;;1.4;;
4325;SDS011;58429;49.826;10.880;2022-07-18T02:58:21;6.1;;;1.4;;
4325;SDS011;58429;49.826;10.880;2022-07-18T02:59:21;6.1;;;1.4;;
4325;SDS011;58429;49.826;10.880;2022-07-18T03:00:21;5.6;;;1.5;;
4325;SDS011;58429;49.826;10.880;2022-07-18T03:01:21;5.6;;;1.5;;
4325;SDS011;58429;49.826;10.880;2022-07-18T03:02:21;5.6;;;1.5;;
4325;SDS011;58429;49.826;10.880;2022-07-18T03:03:21;5.6;;;1.5;;
4325;SDS011;58429;49.826;10.880;2022-07-18T03:04:21;5.2;;;1.4;;
4325;SDS011;58429;49.826;10.880;2022-07-18T03:05:21;5.2;;;1.4;;
4325;SDS011;58429;49.826;10.880;2022-07-18T03:06:21;5.2;;;1.4;;
4325;SDS011;58429;49.826;10.880;2022-07-18T03:07:21;6.3;;;1.6;;
4325;SDS011;58429;49.826;10.880;2022-07-18T03:08:21;6.3;;;1.6;;
4325;SDS011;58429;49.826;10.880;2022-07-18T03:09:21;6.3;;;1.6;;
4325;SDS011;58429;49.826;10.880;2022-07-18T03:10:21;6;;;1.5;;
4325;SDS011;58429;49.826;10.880;2022-07-18T03:11:21;6;;;1.5;;
4325;SDS011;58429;49.826;10.880;2022-07-18T03:12:21;6;;;1.5;;
4325;SDS011;58429;49.826;10.880;2022-07-18T03:13:21;7.1;;;1.7;;
4325;SDS011;58429;49.826;10.880;2022-07-18T03:14:21;7.1;;;1.7;;
4325;SDS011;58429;49.826;10.880;2022-07-18T03:15:21;7.1;;;1.7;;
4325;SDS011;58429;49.826;10.880;2022-07-18T03:16:21;5.5;;;1.5;;
4325;SDS011;58429;49.826;10.880;2022-07-18T03:17:21;5.5;;;1.5;;
4325;SDS011;58429;49.826;10.880;2022-07-18T03:18:21;5.5;;;1.5;;
4325;SDS011;58429;49.826;10.880;2022-07-18T03:19:21;5.4;;;1.5;;
4325;SDS011;58429;49.826;10.880;2022-07-18T03:20:21;5.4;;;1.5;;
4325;SDS011;58429;49.826;10.880;2022-07-18T03:21:21;5.4;;;1.5;;
4325;SDS011;58429;49.826;10.880;2022-07-18T03:22:21;4.6;;;1.4;;
4325;SDS011;58429;49.826;10.880;2022-07-18T03:23:21;4.6;;;1.4;;
4325;SDS011;58429;49.826;10.880;2022-07-18T03:24:21;4.6;;;1.4;;
4325;SDS011;58429;49.826;10.880;2022-07-18T03:25:21;6.4;;;1.6;;
4325;SDS011;58429;49.826;10.880;2022-07-18T03:26:21;6.4;;;1.6;;
4325;SDS011;58429;49.826;10.880;2022-07-18T03:27:21;6.4;;;1.6;;
4325;SDS011;58429;49.826;10.880;2022-07-18T03:28:21;7.6;;;1.6;;
4325;SDS011;58429;49.826;10.880;2022-07-18T03:29:21;7.6;;;1.6;;
4325;SDS011;58429;49.826;10.880;2022-07-18T03:30:21;7.6;;;1.6;;
4325;SDS011;58429;49.826;10.880;2022-07-18T03:31:21;5;;;1.5;;
4325;SDS011;58429;49.826;10.880;2022-07-18T03:32:21;5;;;1.5;;
4325;SDS011;58429;49.826;10.880;2022-07-18T03:33:21;5;;;1.5;;
4325;SDS011;58429;49.826;10.880;2022-07-18T03:34:21;5.3;;;1.6;;
4325;SDS011;58429;49.826;10.880;2022-07-18T03:35:21;5.3;;;1.6;;
4325;SDS011;58429;49.826;10.880;2022-07-18T03:36:21;5.3;;;1.6;;
4325;SDS011;58429;49.826;10.880;2022-07-18T03:37:21;6.2;;;1.6;;
4325;SDS011;58429;49.826;10.880;2022-07-18T03:38:21;6.2;;;1.6;;
4325;SDS011;58429;49.826;10.880;2022-07-18T03:39:21;6.2;;;1.6;;
4325;SDS011;58429;49.826;10.880;2022-07-18T03:40:21;6.6;;;1.8;;
4325;SDS011;58429;49.826;10.880;2022-07-18T03:41:21;6.6;;;1.8;;
4325;SDS011;58429;49.826;10.880;2022-07-18T03:42:21;6.6;;;1.8;;
4325;SDS011;58429;49.826;10.880;2022-07-18T03:43:21;6.9;;;1.6;;
4325;SDS011;58429;49.826;10.880;2022-07-18T03:44:21;6.9;;;1.6;;
4325;SDS011;58429;49.826;10.880;2022-07-18T03:45:21;6.9;;;1.6;;
4325;SDS011;58429;49.826;10.880;2022-07-18T03:46:21;5.7;;;1.7;;
4325;SDS011;58429;49.826;10.880;2022-07-18T03:47:21;5.7;;;1.7;;
4325;SDS011;58429;49.826;10.880;2022-07-18T03:48:21;5.7;;;1.7;;
4325;SDS011;58429;49.826;10.880;2022-07-18T03:49:21;6.4;;;1.6;;
4325;SDS011;58429;49.826;10.880;2022-07-18T03:50:21;6.4;;;1.6;;
4325;SDS011;58429;49.826;10.880;2022-07-18T03:51:21;6.4;;;1.6;;
4325;SDS011;58429;49.826;10.880;2022-07-18T03:52:21;5.7;;;1.6;;
4325;SDS011;58429;49.826;10.880;2022-07-18T03:53:21;5.7;;;1.6;;
4325;SDS011;58429;49.826;10.880;2022-07-18T03:54:21;5.7;;;1.6;;
4325;SDS011;58429;49.826;10.880;2022-07-18T03:55:21;6.1;;;1.8;;
4325;SDS011;58429;49.826;10.880;2022-07-18T03:56:21;6.1;;;1.8;;
4325;SDS011;58429;49.826;10.880;2022-07-18T03:57:21;6.1;;;1.8;;
4325;SDS011;58429;49.826;10.880;2022-07-18T03:58:21;5.8;;;1.6;;
4325;SDS011;58429;49.826;10.880;2022-07-18T03:59:21;5.8;;;1.6;;
4325;SDS011;58429;49.826;10.880;2022-07-18T04:00:21;5.8;;;1.6;;
4325;SDS011;58429;49.826;10.880;2022-07-18T04:01:21;7.5;;;1.8;;
4325;SDS011;58429;49.826;10.880;2022-07-18T04:02:21;7.5;;;1.8;;
4325;SDS011;58429;49.826;10.880;2022-07-18T04:03:21;7.5;;;1.8;;
4325;SDS011;58429;49.826;10.880;2022-07-18T04:04:21;6.9;;;1.8;;
4325;SDS011;58429;49.826;10.880;2022-07-18T04:05:21;6.9;;;1.8;;
4325;SDS011;58429;49.826;10.880;2022-07-18T04:06:21;6.9;;;1.8;;
4325;SDS011;58429;49.826;10.880;2022-07-18T04:07:21;5.5;;;1.6;;
4325;SDS011;58429;49.826;10.880;2022-07-18T04:08:21;5.5;;;1.6;;
4325;SDS011;58429;49.826;10.880;2022-07-18T04:09:21;5.5;;;1.6;;
4325;SDS011;58429;49.826;10.880;2022-07-18T04:10:21;6.2;;;2;;
4325;SDS011;58429;49.826;10.880;2022-07-18T04:11:21;6.2;;;2;;
4325;SDS011;58429;49.826;10.880;2022-07-18T04:12:21;6.2;;;2;;
4325;SDS011;58429;49.826;10.880;2022-07-18T04:13:21;5.8;;;1.8;;
4325;SDS011;58429;49.826;10.880;2022-07-18T04:14:21;5.8;;;1.8;;
4325;SDS011;58429;49.826;10.880;2022-07-18T04:15:21;5.8;;;1.8;;
4325;SDS011;58429;49.826;10.880;2022-07-18T04:16:21;7.7;;;1.8;;
4325;SDS011;58429;49.826;10.880;2022-07-18T04:17:21;7.7;;;1.8;;
4325;SDS011;58429;49.826;10.880;2022-07-18T04:18:21;7.7;;;1.8;;
4325;SDS011;58429;49.826;10.880;2022-07-18T04:19:21;5.7;;;1.5;;
4325;SDS011;58429;49.826;10.880;2022-07-18T04:20:21;5.7;;;1.5;;
4325;SDS011;58429;49.826;10.880;2022-07-18T04:21:21;5.7;;;1.5;;
4325;SDS011;58429;49.826;10.880;2022-07-18T04:22:21;5.6;;;1.7;;
4325;SDS011;58429;49.826;10.880;2022-07-18T04:23:21;5.6;;;1.7;;
4325;SDS011;58429;49.826;10.880;2022-07-18T04:24:21;5.6;;;1.7;;
4325;SDS011;58429;49.826;10.880;2022-07-18T04:25:22;6.4;;;1.6;;
4325;SDS011;58429;49.826;10.880;2022-07-18T04:26:21;6.4;;;1.6;;
4325;SDS011;58429;49.826;10.880;2022-07-18T04:27:21;6.4;;;1.6;;
4325;SDS011;58429;49.826;10.880;2022-07-18T04:28:21;6.6;;;1.6;;
4325;SDS011;58429;49.826;10.880;2022-07-18T04:29:21;6.6;;;1.6;;
4325;SDS011;58429;49.826;10.880;2022-07-18T04:30:22;6.6;;;1.6;;
4325;SDS011;58429;49.826;10.880;2022-07-18T04:31:21;7.3;;;1.6;;
4325;SDS011;58429;49.826;10.880;2022-07-18T04:32:21;7.3;;;1.6;;
4325;SDS011;58429;49.826;10.880;2022-07-18T04:33:21;7.3;;;1.6;;
4325;SDS011;58429;49.826;10.880;2022-07-18T04:34:21;6.8;;;1.7;;
4325;SDS011;58429;49.826;10.880;2022-07-18T04:35:21;6.8;;;1.7;;
4325;SDS011;58429;49.826;10.880;2022-07-18T04:36:21;6.8;;;1.7;;
4325;SDS011;58429;49.826;10.880;2022-07-18T04:37:21;6.3;;;2;;
4325;SDS011;58429;49.826;10.880;2022-07-18T04:38:21;6.3;;;2;;
4325;SDS011;58429;49.826;10.880;2022-07-18T04:39:21;6.3;;;2;;
4325;SDS011;58429;49.826;10.880;2022-07-18T04:40:21;5.8;;;1.7;;
4325;SDS011;58429;49.826;10.880;2022-07-18T04:41:21;5.8;;;1.7;;
4325;SDS011;58429;49.826;10.880;2022-07-18T04:42:21;5.8;;;1.7;;
4325;SDS011;58429;49.826;10.880;2022-07-18T04:43:21;6;;;1.9;;
4325;SDS011;58429;49.826;10.880;2022-07-18T04:44:21;6;;;1.9;;
4325;SDS011;58429;49.826;10.880;2022-07-18T04:45:21;6;;;1.9;;
4325;SDS011;58429;49.826;10.880;2022-07-18T04:46:21;5.3;;;1.7;;
4325;SDS011;58429;49.826;10.880;2022-07-18T04:47:21;5.3;;;1.7;;
4325;SDS011;58429;49.826;10.880;2022-07-18T04:48:21;5.3;;;1.7;;
4325;SDS011;58429;49.826;10.880;2022-07-18T04:49:21;6.8;;;1.7;;
4325;SDS011;58429;49.826;10.880;2022-07-18T04:50:21;6.8;;;1.7;;
4325;SDS011;58429;49.826;10.880;2022-07-18T04:51:21;6.8;;;1.7;;
4325;SDS011;58429;49.826;10.880;2022-07-18T04:52:22;5.6;;;1.9;;
4325;SDS011;58429;49.826;10.880;2022-07-18T04:53:21;5.6;;;1.9;;
4325;SDS011;58429;49.826;10.880;2022-07-18T04:54:21;5.6;;;1.9;;
4325;SDS011;58429;49.826;10.880;2022-07-18T04:55:21;6.4;;;1.7;;
4325;SDS011;58429;49.826;10.880;2022-07-18T04:56:21;6.4;;;1.7;;
4325;SDS011;58429;49.826;10.880;2022-07-18T04:57:21;6.4;;;1.7;;
4325;SDS011;58429;49.826;10.880;2022-07-18T04:58:21;6.4;;;1.7;;
4325;SDS011;58429;49.826;10.880;2022-07-18T04:59:21;5.9;;;1.8;;
4325;SDS011;58429;49.826;10.880;2022-07-18T05:00:22;5.9;;;1.8;;
4325;SDS011;58429;49.826;10.880;2022-07-18T05:01:21;5.9;;;1.8;;
4325;SDS011;58429;49.826;10.880;2022-07-18T05:02:21;7.6;;;1.9;;
4325;SDS011;58429;49.826;10.880;2022-07-18T05:03:21;7.6;;;1.9;;
4325;SDS011;58429;49.826;10.880;2022-07-18T05:04:21;7.6;;;1.9;;
4325;SDS011;58429;49.826;10.880;2022-07-18T05:05:22;5.7;;;1.6;;
4325;SDS011;58429;49.826;10.880;2022-07-18T05:06:21;5.7;;;1.6;;
4325;SDS011;58429;49.826;10.880;2022-07-18T05:07:21;5.7;;;1.6;;
4325;SDS011;58429;49.826;10.880;2022-07-18T05:08:21;8;;;2.1;;
4325;SDS011;58429;49.826;10.880;2022-07-18T05:09:21;8;;;2.1;;
4325;SDS011;58429;49.826;10.880;2022-07-18T05:10:22;8;;;2.1;;
4325;SDS011;58429;49.826;10.880;2022-07-18T05:11:21;6.9;;;1.8;;
4325;SDS011;58429;49.826;10.880;2022-07-18T05:12:21;6.9;;;1.8;;
4325;SDS011;58429;49.826;10.880;2022-07-18T05:13:21;6.9;;;1.8;;
4325;SDS011;58429;49.826;10.880;2022-07-18T05:14:21;5.9;;;1.8;;
4325;SDS011;58429;49.826;10.880;2022-07-18T05:15:22;5.9;;;1.8;;
4325;SDS011;58429;49.826;10.880;2022-07-18T05:16:21;5.9;;;1.8;;
4325;SDS011;58429;49.826;10.880;2022-07-18T05:17:21;6.5;;;1.9;;
4325;SDS011;58429;49.826;10.880;2022-07-18T05:18:21;6.5;;;1.9;;
4325;SDS011;58429;49.826;10.880;2022-07-18T05:19:21;6.5;;;1.9;;
4325;SDS011;58429;49.826;10.880;2022-07-18T05:20:22;5.4;;;1.7;;
4325;SDS011;58429;49.826;10.880;2022-07-18T05:21:22;5.4;;;1.7;;
4325;SDS011;58429;49.826;10.880;2022-07-18T05:22:21;5.4;;;1.7;;
4325;SDS011;58429;49.826;10.880;2022-07-18T05:23:21;6.2;;;1.9;;
4325;SDS011;58429;49.826;10.880;2022-07-18T05:24:21;6.2;;;1.9;;
4325;SDS011;58429;49.826;10.880;2022-07-18T05:25:22;6.2;;;1.9;;
4325;SDS011;58429;49.826;10.880;2022-07-18T05:26:21;5.5;;;1.8;;
4325;SDS011;58429;49.826;10.880;2022-07-18T05:27:21;5.5;;;1.8;;
4325;SDS011;58429;49.826;10.880;2022-07-18T05:28:21;5.5;;;1.8;;
4325;SDS011;58429;49.826;10.880;2022-07-18T05:29:21;6.2;;;1.8;;
4325;SDS011;58429;49.826;10.880;2022-07-18T05:30:21;6.2;;;1.8;;
4325;SDS011;58429;49.826;10.880;2022-07-18T05:31:21;6.2;;;1.8;;
4325;SDS011;58429;49.826;10.880;2022-07-18T05:32:21;6.8;;;1.7;;
4325;SDS011;58429;49.826;10.880;2022-07-18T05:33:21;6.8;;;1.7;;
4325;SDS011;58429;49.826;10.880;2022-07-18T05:34:21;6.8;;;1.7;;
4325;SDS011;58429;49.826;10.880;2022-07-18T05:35:21;6;;;1.9;;
4325;SDS011;58429;49.826;10.880;2022-07-18T05:36:21;6;;;1.9;;
4325;SDS011;58429;49.826;10.880;2022-07-18T05:37:21;6;;;1.9;;
4325;SDS011;58429;49.826;10.880;2022-07-18T05:38:21;6.8;;;2;;
4325;SDS011;58429;49.826;10.880;2022-07-18T05:39:21;6.8;;;2;;
4325;SDS011;58429;49.826;10.880;2022-07-18T05:40:21;6.8;;;2;;
4325;SDS011;58429;49.826;10.880;2022-07-18T05:41:21;6.8;;;2;;
4325;SDS011;58429;49.826;10.880;2022-07-18T05:42:21;6.8;;;2;;
4325;SDS011;58429;49.826;10.880;2022-07-18T05:43:21;6.8;;;2;;
4325;SDS011;58429;49.826;10.880;2022-07-18T05:44:21;6.3;;;1.7;;
4325;SDS011;58429;49.826;10.880;2022-07-18T05:45:21;6.3;;;1.7;;
4325;SDS011;58429;49.826;10.880;2022-07-18T05:46:21;6.3;;;1.7;;
4325;SDS011;58429;49.826;10.880;2022-07-18T05:47:21;7;;;1.8;;
4325;SDS011;58429;49.826;10.880;2022-07-18T05:48:21;7;;;1.8;;
4325;SDS011;58429;49.826;10.880;2022-07-18T05:49:21;7;;;1.8;;
4325;SDS011;58429;49.826;10.880;2022-07-18T05:50:21;6.9;;;2;;
4325;SDS011;58429;49.826;10.880;2022-07-18T05:51:21;6.9;;;2;;
4325;SDS011;58429;49.826;10.880;2022-07-18T05:52:21;6.9;;;2;;
4325;SDS011;58429;49.826;10.880;2022-07-18T05:53:21;5.4;;;1.6;;
4325;SDS011;58429;49.826;10.880;2022-07-18T05:54:21;5.4;;;1.6;;
4325;SDS011;58429;49.826;10.880;2022-07-18T05:55:21;5.4;;;1.6;;
4325;SDS011;58429;49.826;10.880;2022-07-18T05:56:21;6.5;;;1.9;;
4325;SDS011;58429;49.826;10.880;2022-07-18T05:57:21;6.5;;;1.9;;
4325;SDS011;58429;49.826;10.880;2022-07-18T05:58:21;6.5;;;1.9;;
4325;SDS011;58429;49.826;10.880;2022-07-18T05:59:21;7.1;;;2;;
4325;SDS011;58429;49.826;10.880;2022-07-18T06:00:21;7.1;;;2;;
4325;SDS011;58429;49.826;10.880;2022-07-18T06:01:21;7.1;;;2;;
4325;SDS011;58429;49.826;10.880;2022-07-18T06:02:21;7.9;;;1.9;;
4325;SDS011;58429;49.826;10.880;2022-07-18T06:03:21;7.9;;;1.9;;
4325;SDS011;58429;49.826;10.880;2022-07-18T06:04:21;7.9;;;1.9;;
4325;SDS011;58429;49.826;10.880;2022-07-18T06:05:21;5.8;;;1.6;;
4325;SDS011;58429;49.826;10.880;2022-07-18T06:06:21;5.8;;;1.6;;
4325;SDS011;58429;49.826;10.880;2022-07-18T06:07:21;5.8;;;1.6;;
4325;SDS011;58429;49.826;10.880;2022-07-18T06:08:21;6.3;;;1.9;;
4325;SDS011;58429;49.826;10.880;2022-07-18T06:09:21;6.3;;;1.9;;
4325;SDS011;58429;49.826;10.880;2022-07-18T06:10:21;6.3;;;1.9;;
4325;SDS011;58429;49.826;10.880;2022-07-18T06:11:21;6.4;;;2;;
4325;SDS011;58429;49.826;10.880;2022-07-18T06:12:21;6.4;;;2;;
4325;SDS011;58429;49.826;10.880;2022-07-18T06:13:21;6.4;;;2;;
4325;SDS011;58429;49.826;10.880;2022-07-18T06:14:21;6.4;;;1.7;;